sensor_id;sensor_type;location;lat;lon;timestamp;temperature;humidity
31455;DHT22;18084;53.028;8.834;2022-09-09T00:00:13;14.00;99.90
31455;DHT22;18084;53.028;8.834;2022-09-09T00:02:54;14.00;99.90
31455;DHT22;18084;53.028;8.834;2022-09-09T01:47:04;13.40;99.90
31455;DHT22;18084;53.028;8.834;2022-09-09T01:49:33;13.40;99.90
31455;DHT22;18084;53.028;8.834;2022-09-09T01:52:18;13.40;99.90
31455;DHT22;18084;53.028;8.834;2022-09-09T06:15:38;15.00;99.90
31455;DHT22;18084;53.028;8.834;2022-09-09T06:18:17;15.10;99.90
31455;DHT22;18084;53.028;8.834;2022-09-09T06:21:07;15.40;99.90
31455;DHT22;18084;53.028;8.834;2022-09-09T06:24:02;15.40;99.90
31455;DHT22;18084;53.028;8.834;2022-09-09T06:27:07;15.60;99.90
31455;DHT22;18084;53.028;8.834;2022-09-09T06:33:04;16.50;99.90
31455;DHT22;18084;53.028;8.834;2022-09-09T06:35:54;17.30;99.90
31455;DHT22;18084;53.028;8.834;2022-09-09T06:44:15;17.00;92.90
31455;DHT22;18084;53.028;8.834;2022-09-09T06:46:41;16.70;98.90
31455;DHT22;18084;53.028;8.834;2022-09-09T06:49:09;16.70;99.40
31455;DHT22;18084;53.028;8.834;2022-09-09T06:51:37;16.80;99.90
31455;DHT22;18084;53.028;8.834;2022-09-09T06:54:08;16.50;99.90
31455;DHT22;18084;53.028;8.834;2022-09-09T06:56:36;16.70;99.90
31455;DHT22;18084;53.028;8.834;2022-09-09T06:59:04;16.70;99.90
31455;DHT22;18084;53.028;8.834;2022-09-09T07:01:36;16.90;99.90
31455;DHT22;18084;53.028;8.834;2022-09-09T07:04:03;17.50;96.40
31455;DHT22;18084;53.028;8.834;2022-09-09T07:06:34;18.30;88.40
31455;DHT22;18084;53.028;8.834;2022-09-09T07:09:05;19.40;60.20
31455;DHT22;18084;53.028;8.834;2022-09-09T07:11:34;20.00;1.00
31455;DHT22;18084;53.028;8.834;2022-09-09T07:14:05;20.20;1.00
31455;DHT22;18084;53.028;8.834;2022-09-09T07:16:31;20.70;1.00
31455;DHT22;18084;53.028;8.834;2022-09-09T07:18:58;21.50;99.90
31455;DHT22;18084;53.028;8.834;2022-09-09T07:21:25;22.20;99.90
31455;DHT22;18084;53.028;8.834;2022-09-09T07:23:54;22.60;1.00
31455;DHT22;18084;53.028;8.834;2022-09-09T07:26:23;23.00;1.00
31455;DHT22;18084;53.028;8.834;2022-09-09T07:28:49;23.40;99.90
31455;DHT22;18084;53.028;8.834;2022-09-09T07:31:16;23.50;99.90
31455;DHT22;18084;53.028;8.834;2022-09-09T07:33:48;24.00;17.10
31455;DHT22;18084;53.028;8.834;2022-09-09T07:39:02;23.80;1.00
31455;DHT22;18084;53.028;8.834;2022-09-09T07:41:45;23.80;1.00
31455;DHT22;18084;53.028;8.834;2022-09-09T07:44:18;24.10;1.00
31455;DHT22;18084;53.028;8.834;2022-09-09T07:46:46;24.30;1.00
31455;DHT22;18084;53.028;8.834;2022-09-09T07:49:13;24.60;1.00
31455;DHT22;18084;53.028;8.834;2022-09-09T07:51:42;25.00;99.90
31455;DHT22;18084;53.028;8.834;2022-09-09T07:54:15;25.30;99.90
31455;DHT22;18084;53.028;8.834;2022-09-09T07:56:45;25.60;99.90
31455;DHT22;18084;53.028;8.834;2022-09-09T07:59:17;25.30;99.90
31455;DHT22;18084;53.028;8.834;2022-09-09T08:01:53;25.50;99.90
31455;DHT22;18084;53.028;8.834;2022-09-09T08:04:23;25.60;99.90
31455;DHT22;18084;53.028;8.834;2022-09-09T08:06:58;25.60;99.90
31455;DHT22;18084;53.028;8.834;2022-09-09T08:09:26;25.80;99.90
31455;DHT22;18084;53.028;8.834;2022-09-09T08:11:54;25.50;99.90
31455;DHT22;18084;53.028;8.834;2022-09-09T08:14:23;25.80;99.90
31455;DHT22;18084;53.028;8.834;2022-09-09T08:16:50;25.80;99.90
31455;DHT22;18084;53.028;8.834;2022-09-09T08:19:19;25.80;99.90
31455;DHT22;18084;53.028;8.834;2022-09-09T08:21:44;26.10;99.90
31455;DHT22;18084;53.028;8.834;2022-09-09T08:24:11;26.30;99.90
31455;DHT22;18084;53.028;8.834;2022-09-09T08:26:39;26.90;99.90
31455;DHT22;18084;53.028;8.834;2022-09-09T08:32:41;25.50;99.90
31455;DHT22;18084;53.028;8.834;2022-09-09T08:35:41;26.00;99.90
31455;DHT22;18084;53.028;8.834;2022-09-09T08:38:29;25.70;99.90
31455;DHT22;18084;53.028;8.834;2022-09-09T08:43:46;25.30;99.90
31455;DHT22;18084;53.028;8.834;2022-09-09T08:46:35;24.70;99.90
31455;DHT22;18084;53.028;8.834;2022-09-09T08:53:04;23.70;99.90
31455;DHT22;18084;53.028;8.834;2022-09-09T08:55:52;22.80;1.00
31455;DHT22;18084;53.028;8.834;2022-09-09T08:58:50;22.10;99.90
31455;DHT22;18084;53.028;8.834;2022-09-09T09:02:04;21.80;1.00
31455;DHT22;18084;53.028;8.834;2022-09-09T09:08:18;23.40;1.00
31455;DHT22;18084;53.028;8.834;2022-09-09T09:10:54;22.50;1.00
31455;DHT22;18084;53.028;8.834;2022-09-09T09:13:37;21.80;99.90
31455;DHT22;18084;53.028;8.834;2022-09-09T09:19:34;21.30;99.90
31455;DHT22;18084;53.028;8.834;2022-09-09T09:22:20;21.70;99.90
31455;DHT22;18084;53.028;8.834;2022-09-09T09:28:30;21.30;1.00
31455;DHT22;18084;53.028;8.834;2022-09-09T09:31:08;22.30;99.90
31455;DHT22;18084;53.028;8.834;2022-09-09T09:36:10;23.70;1.00
31455;DHT22;18084;53.028;8.834;2022-09-09T09:38:37;23.40;1.00
31455;DHT22;18084;53.028;8.834;2022-09-09T09:41:03;23.50;1.00
31455;DHT22;18084;53.028;8.834;2022-09-09T09:43:31;23.00;1.00
31455;DHT22;18084;53.028;8.834;2022-09-09T09:46:20;22.80;1.00
31455;DHT22;18084;53.028;8.834;2022-09-09T09:49:08;22.30;1.00
31455;DHT22;18084;53.028;8.834;2022-09-09T09:51:37;22.20;99.90
31455;DHT22;18084;53.028;8.834;2022-09-09T09:54:27;21.60;99.90
31455;DHT22;18084;53.028;8.834;2022-09-09T09:56:54;21.30;99.90
31455;DHT22;18084;53.028;8.834;2022-09-09T09:59:35;21.00;41.30
31455;DHT22;18084;53.028;8.834;2022-09-09T10:02:22;21.10;41.20
31455;DHT22;18084;53.028;8.834;2022-09-09T10:05:24;21.30;1.00
31455;DHT22;18084;53.028;8.834;2022-09-09T10:08:11;21.40;99.90
31455;DHT22;18084;53.028;8.834;2022-09-09T10:13:36;21.50;51.80
31455;DHT22;18084;53.028;8.834;2022-09-09T10:19:01;21.40;99.90
31455;DHT22;18084;53.028;8.834;2022-09-09T10:24:34;21.30;99.90
31455;DHT22;18084;53.028;8.834;2022-09-09T10:27:19;21.50;24.00
31455;DHT22;18084;53.028;8.834;2022-09-09T10:30:03;21.50;1.00
31455;DHT22;18084;53.028;8.834;2022-09-09T10:32:49;21.60;99.90
31455;DHT22;18084;53.028;8.834;2022-09-09T10:38:44;21.80;99.90
31455;DHT22;18084;53.028;8.834;2022-09-09T10:41:39;21.70;99.90
31455;DHT22;18084;53.028;8.834;2022-09-09T10:49:58;21.60;1.00
31455;DHT22;18084;53.028;8.834;2022-09-09T10:54:57;22.00;1.00
31455;DHT22;18084;53.028;8.834;2022-09-09T10:57:36;22.00;99.90
31455;DHT22;18084;53.028;8.834;2022-09-09T11:00:06;22.00;99.90
31455;DHT22;18084;53.028;8.834;2022-09-09T11:02:34;22.10;99.90
31455;DHT22;18084;53.028;8.834;2022-09-09T11:07:42;22.40;99.90
31455;DHT22;18084;53.028;8.834;2022-09-09T11:13:11;22.50;99.90
31455;DHT22;18084;53.028;8.834;2022-09-09T11:15:50;22.60;99.90
31455;DHT22;18084;53.028;8.834;2022-09-09T11:18:20;23.00;34.90
31455;DHT22;18084;53.028;8.834;2022-09-09T11:20:53;22.80;1.00
31455;DHT22;18084;53.028;8.834;2022-09-09T11:23:28;22.50;1.00
31455;DHT22;18084;53.028;8.834;2022-09-09T11:26:00;22.50;42.40
31455;DHT22;18084;53.028;8.834;2022-09-09T11:31:24;22.30;98.30
31455;DHT22;18084;53.028;8.834;2022-09-09T11:34:04;22.40;71.30
31455;DHT22;18084;53.028;8.834;2022-09-09T11:37:00;22.30;38.80
31455;DHT22;18084;53.028;8.834;2022-09-09T11:39:36;22.30;64.80
31455;DHT22;18084;53.028;8.834;2022-09-09T11:42:15;22.10;99.90
31455;DHT22;18084;53.028;8.834;2022-09-09T11:44:42;21.90;99.90
31455;DHT22;18084;53.028;8.834;2022-09-09T11:47:30;21.60;1.00
31455;DHT22;18084;53.028;8.834;2022-09-09T11:52:42;21.50;69.20
31455;DHT22;18084;53.028;8.834;2022-09-09T11:55:32;21.20;8.30
31455;DHT22;18084;53.028;8.834;2022-09-09T11:58:03;21.10;29.80
31455;DHT22;18084;53.028;8.834;2022-09-09T12:02:58;20.90;99.90
31455;DHT22;18084;53.028;8.834;2022-09-09T12:05:34;20.70;99.90
31455;DHT22;18084;53.028;8.834;2022-09-09T12:08:02;20.60;99.90
31455;DHT22;18084;53.028;8.834;2022-09-09T12:10:33;20.40;99.90
31455;DHT22;18084;53.028;8.834;2022-09-09T12:13:15;20.40;99.90
31455;DHT22;18084;53.028;8.834;2022-09-09T12:18:25;19.70;1.00
31455;DHT22;18084;53.028;8.834;2022-09-09T12:24:02;18.70;73.50
31455;DHT22;18084;53.028;8.834;2022-09-09T12:29:12;17.70;83.70
31455;DHT22;18084;53.028;8.834;2022-09-09T12:31:49;17.60;99.90
31455;DHT22;18084;53.028;8.834;2022-09-09T12:34:35;17.50;99.90
31455;DHT22;18084;53.028;8.834;2022-09-09T12:37:14;17.30;99.90
31455;DHT22;18084;53.028;8.834;2022-09-09T12:39:54;17.20;99.90
31455;DHT22;18084;53.028;8.834;2022-09-09T12:42:21;17.40;99.90
31455;DHT22;18084;53.028;8.834;2022-09-09T12:44:57;17.40;99.90
31455;DHT22;18084;53.028;8.834;2022-09-09T12:47:39;17.40;99.90
31455;DHT22;18084;53.028;8.834;2022-09-09T12:50:15;17.60;99.90
31455;DHT22;18084;53.028;8.834;2022-09-09T12:52:42;17.50;99.90
31455;DHT22;18084;53.028;8.834;2022-09-09T12:55:17;17.50;99.90
31455;DHT22;18084;53.028;8.834;2022-09-09T12:57:43;17.60;99.90
31455;DHT22;18084;53.028;8.834;2022-09-09T13:00:14;17.60;99.90
31455;DHT22;18084;53.028;8.834;2022-09-09T13:02:58;17.70;99.90
31455;DHT22;18084;53.028;8.834;2022-09-09T13:05:36;17.70;99.90
31455;DHT22;18084;53.028;8.834;2022-09-09T13:08:04;17.80;99.90
31455;DHT22;18084;53.028;8.834;2022-09-09T13:10:33;17.90;99.90
31455;DHT22;18084;53.028;8.834;2022-09-09T13:13:00;18.00;99.90
31455;DHT22;18084;53.028;8.834;2022-09-09T13:15:26;18.10;99.90
31455;DHT22;18084;53.028;8.834;2022-09-09T13:17:59;18.10;99.90
31455;DHT22;18084;53.028;8.834;2022-09-09T13:20:26;18.20;99.90
31455;DHT22;18084;53.028;8.834;2022-09-09T13:22:52;18.30;99.90
31455;DHT22;18084;53.028;8.834;2022-09-09T13:27:57;18.50;99.90
31455;DHT22;18084;53.028;8.834;2022-09-09T13:30:29;18.60;99.90
31455;DHT22;18084;53.028;8.834;2022-09-09T13:35:48;18.70;99.90
31455;DHT22;18084;53.028;8.834;2022-09-09T13:38:15;18.80;99.90
31455;DHT22;18084;53.028;8.834;2022-09-09T13:40:55;18.80;95.10
31455;DHT22;18084;53.028;8.834;2022-09-09T13:43:23;18.70;93.10
31455;DHT22;18084;53.028;8.834;2022-09-09T13:46:23;18.70;95.70
31455;DHT22;18084;53.028;8.834;2022-09-09T13:48:57;18.50;91.20
31455;DHT22;18084;53.028;8.834;2022-09-09T13:51:36;18.50;91.40
31455;DHT22;18084;53.028;8.834;2022-09-09T13:54:04;18.40;87.80
31455;DHT22;18084;53.028;8.834;2022-09-09T13:56:30;18.30;90.30
31455;DHT22;18084;53.028;8.834;2022-09-09T13:58:57;18.30;93.40
31455;DHT22;18084;53.028;8.834;2022-09-09T14:01:23;18.20;97.00
31455;DHT22;18084;53.028;8.834;2022-09-09T14:03:49;18.20;99.90
31455;DHT22;18084;53.028;8.834;2022-09-09T14:06:14;18.20;99.90
31455;DHT22;18084;53.028;8.834;2022-09-09T14:08:40;18.00;99.90
31455;DHT22;18084;53.028;8.834;2022-09-09T14:11:07;17.90;99.90
31455;DHT22;18084;53.028;8.834;2022-09-09T14:13:34;17.90;99.90
31455;DHT22;18084;53.028;8.834;2022-09-09T14:15:59;17.80;99.90
31455;DHT22;18084;53.028;8.834;2022-09-09T14:18:25;17.70;99.90
31455;DHT22;18084;53.028;8.834;2022-09-09T14:20:50;17.70;99.90
31455;DHT22;18084;53.028;8.834;2022-09-09T14:23:16;17.60;99.90
31455;DHT22;18084;53.028;8.834;2022-09-09T14:25:43;17.70;99.90
31455;DHT22;18084;53.028;8.834;2022-09-09T14:28:12;17.60;99.90
31455;DHT22;18084;53.028;8.834;2022-09-09T14:30:40;17.60;99.90
31455;DHT22;18084;53.028;8.834;2022-09-09T14:33:08;17.50;99.90
31455;DHT22;18084;53.028;8.834;2022-09-09T14:35:34;17.50;99.90
31455;DHT22;18084;53.028;8.834;2022-09-09T14:38:01;17.50;99.90
31455;DHT22;18084;53.028;8.834;2022-09-09T14:40:27;17.50;99.90
31455;DHT22;18084;53.028;8.834;2022-09-09T14:42:53;17.50;99.90
31455;DHT22;18084;53.028;8.834;2022-09-09T14:45:19;17.50;99.90
31455;DHT22;18084;53.028;8.834;2022-09-09T14:47:46;17.40;99.90
31455;DHT22;18084;53.028;8.834;2022-09-09T14:50:12;17.40;99.90
31455;DHT22;18084;53.028;8.834;2022-09-09T14:52:38;17.40;99.90
31455;DHT22;18084;53.028;8.834;2022-09-09T14:55:04;17.30;99.90
31455;DHT22;18084;53.028;8.834;2022-09-09T14:57:29;17.20;99.90
31455;DHT22;18084;53.028;8.834;2022-09-09T14:59:55;17.20;99.90
31455;DHT22;18084;53.028;8.834;2022-09-09T15:02:22;17.10;99.90
31455;DHT22;18084;53.028;8.834;2022-09-09T15:04:47;17.10;99.90
31455;DHT22;18084;53.028;8.834;2022-09-09T15:07:15;17.00;99.90
31455;DHT22;18084;53.028;8.834;2022-09-09T15:09:41;16.90;99.90
31455;DHT22;18084;53.028;8.834;2022-09-09T15:12:07;16.90;99.90
31455;DHT22;18084;53.028;8.834;2022-09-09T15:14:32;16.90;99.90
31455;DHT22;18084;53.028;8.834;2022-09-09T15:16:58;16.80;99.90
31455;DHT22;18084;53.028;8.834;2022-09-09T15:19:23;16.80;99.90
31455;DHT22;18084;53.028;8.834;2022-09-09T15:21:49;16.80;99.90
31455;DHT22;18084;53.028;8.834;2022-09-09T15:24:14;16.80;99.90
31455;DHT22;18084;53.028;8.834;2022-09-09T15:26:41;16.70;99.90
31455;DHT22;18084;53.028;8.834;2022-09-09T15:29:07;16.70;99.90
31455;DHT22;18084;53.028;8.834;2022-09-09T15:31:33;16.70;99.90
31455;DHT22;18084;53.028;8.834;2022-09-09T15:34:00;16.70;99.90
31455;DHT22;18084;53.028;8.834;2022-09-09T15:36:34;16.70;99.90
31455;DHT22;18084;53.028;8.834;2022-09-09T15:39:02;16.70;99.90
31455;DHT22;18084;53.028;8.834;2022-09-09T15:41:28;16.60;99.90
31455;DHT22;18084;53.028;8.834;2022-09-09T15:43:56;16.60;99.90
31455;DHT22;18084;53.028;8.834;2022-09-09T15:46:28;16.60;99.90
31455;DHT22;18084;53.028;8.834;2022-09-09T15:49:07;16.50;99.90
31455;DHT22;18084;53.028;8.834;2022-09-09T15:51:34;16.50;99.90
31455;DHT22;18084;53.028;8.834;2022-09-09T15:54:00;16.40;99.90
31455;DHT22;18084;53.028;8.834;2022-09-09T15:56:26;16.40;99.90
31455;DHT22;18084;53.028;8.834;2022-09-09T15:58:54;16.50;99.90
31455;DHT22;18084;53.028;8.834;2022-09-09T16:01:20;16.50;99.90
31455;DHT22;18084;53.028;8.834;2022-09-09T16:03:46;16.40;99.90
31455;DHT22;18084;53.028;8.834;2022-09-09T16:06:14;16.40;99.90
31455;DHT22;18084;53.028;8.834;2022-09-09T16:08:43;16.40;99.90
31455;DHT22;18084;53.028;8.834;2022-09-09T16:11:11;16.40;99.90
31455;DHT22;18084;53.028;8.834;2022-09-09T16:13:38;16.40;99.90
31455;DHT22;18084;53.028;8.834;2022-09-09T16:16:05;16.40;99.90
31455;DHT22;18084;53.028;8.834;2022-09-09T16:18:38;16.40;99.90
31455;DHT22;18084;53.028;8.834;2022-09-09T16:21:05;16.40;99.90
31455;DHT22;18084;53.028;8.834;2022-09-09T16:23:34;16.30;99.90
31455;DHT22;18084;53.028;8.834;2022-09-09T16:26:01;16.30;99.90
31455;DHT22;18084;53.028;8.834;2022-09-09T16:28:27;16.30;99.90
31455;DHT22;18084;53.028;8.834;2022-09-09T16:30:52;16.20;99.90
31455;DHT22;18084;53.028;8.834;2022-09-09T16:33:18;16.20;99.90
31455;DHT22;18084;53.028;8.834;2022-09-09T16:35:44;16.20;99.90
31455;DHT22;18084;53.028;8.834;2022-09-09T16:38:11;16.10;99.90
31455;DHT22;18084;53.028;8.834;2022-09-09T16:40:37;16.10;99.90
31455;DHT22;18084;53.028;8.834;2022-09-09T16:43:04;16.10;99.90
31455;DHT22;18084;53.028;8.834;2022-09-09T16:45:32;16.10;99.90
31455;DHT22;18084;53.028;8.834;2022-09-09T16:47:58;16.10;99.90
31455;DHT22;18084;53.028;8.834;2022-09-09T16:50:23;16.10;99.90
31455;DHT22;18084;53.028;8.834;2022-09-09T16:52:50;16.00;99.90
31455;DHT22;18084;53.028;8.834;2022-09-09T16:55:16;16.10;99.90
31455;DHT22;18084;53.028;8.834;2022-09-09T16:57:42;16.00;99.90
31455;DHT22;18084;53.028;8.834;2022-09-09T17:00:08;16.00;99.90
31455;DHT22;18084;53.028;8.834;2022-09-09T17:02:33;16.00;99.90
31455;DHT22;18084;53.028;8.834;2022-09-09T17:04:59;16.10;99.90
31455;DHT22;18084;53.028;8.834;2022-09-09T17:07:25;16.10;99.90
31455;DHT22;18084;53.028;8.834;2022-09-09T17:09:50;16.10;99.90
31455;DHT22;18084;53.028;8.834;2022-09-09T17:12:16;16.00;99.90
31455;DHT22;18084;53.028;8.834;2022-09-09T17:14:42;15.90;99.90
31455;DHT22;18084;53.028;8.834;2022-09-09T17:17:08;15.80;99.90
31455;DHT22;18084;53.028;8.834;2022-09-09T17:19:33;15.70;99.90
31455;DHT22;18084;53.028;8.834;2022-09-09T17:21:59;15.60;99.90
31455;DHT22;18084;53.028;8.834;2022-09-09T17:24:26;15.40;99.90
31455;DHT22;18084;53.028;8.834;2022-09-09T17:26:52;15.30;99.90
31455;DHT22;18084;53.028;8.834;2022-09-09T17:29:17;15.10;99.90
31455;DHT22;18084;53.028;8.834;2022-09-09T17:31:43;15.00;99.90
31455;DHT22;18084;53.028;8.834;2022-09-09T17:34:08;15.00;99.90
31455;DHT22;18084;53.028;8.834;2022-09-09T17:36:34;14.90;99.90
31455;DHT22;18084;53.028;8.834;2022-09-09T17:39:00;15.00;99.90
31455;DHT22;18084;53.028;8.834;2022-09-09T17:41:35;15.00;99.90
31455;DHT22;18084;53.028;8.834;2022-09-09T17:44:01;15.00;99.90
31455;DHT22;18084;53.028;8.834;2022-09-09T17:46:38;15.10;99.90
31455;DHT22;18084;53.028;8.834;2022-09-09T17:49:08;15.10;99.90
31455;DHT22;18084;53.028;8.834;2022-09-09T17:51:34;15.00;99.90
31455;DHT22;18084;53.028;8.834;2022-09-09T17:54:03;15.00;99.90
31455;DHT22;18084;53.028;8.834;2022-09-09T17:56:31;15.00;99.90
31455;DHT22;18084;53.028;8.834;2022-09-09T17:58:58;15.10;99.90
31455;DHT22;18084;53.028;8.834;2022-09-09T18:01:26;15.10;99.90
31455;DHT22;18084;53.028;8.834;2022-09-09T18:03:54;15.00;99.90
31455;DHT22;18084;53.028;8.834;2022-09-09T18:06:26;15.00;99.90
31455;DHT22;18084;53.028;8.834;2022-09-09T18:08:57;15.00;99.90
31455;DHT22;18084;53.028;8.834;2022-09-09T18:11:26;15.00;99.90
31455;DHT22;18084;53.028;8.834;2022-09-09T18:13:57;15.00;99.90
31455;DHT22;18084;53.028;8.834;2022-09-09T18:16:25;15.00;99.90
31455;DHT22;18084;53.028;8.834;2022-09-09T18:18:51;15.10;99.90
31455;DHT22;18084;53.028;8.834;2022-09-09T18:21:18;15.10;99.90
31455;DHT22;18084;53.028;8.834;2022-09-09T18:23:44;15.10;99.90
31455;DHT22;18084;53.028;8.834;2022-09-09T18:26:18;15.00;99.90
31455;DHT22;18084;53.028;8.834;2022-09-09T18:28:48;15.10;99.90
31455;DHT22;18084;53.028;8.834;2022-09-09T18:31:16;15.10;99.90
31455;DHT22;18084;53.028;8.834;2022-09-09T18:33:43;15.10;99.90
31455;DHT22;18084;53.028;8.834;2022-09-09T18:36:13;15.00;99.90
31455;DHT22;18084;53.028;8.834;2022-09-09T18:38:39;15.00;99.90
31455;DHT22;18084;53.028;8.834;2022-09-09T18:41:20;15.00;99.90
31455;DHT22;18084;53.028;8.834;2022-09-09T18:43:50;14.90;99.90
31455;DHT22;18084;53.028;8.834;2022-09-09T18:46:17;14.90;99.90
31455;DHT22;18084;53.028;8.834;2022-09-09T18:48:44;14.90;99.90
31455;DHT22;18084;53.028;8.834;2022-09-09T18:51:14;14.90;99.90
31455;DHT22;18084;53.028;8.834;2022-09-09T18:53:42;14.90;99.90
31455;DHT22;18084;53.028;8.834;2022-09-09T18:56:10;14.90;99.90
31455;DHT22;18084;53.028;8.834;2022-09-09T18:58:37;14.90;99.90
31455;DHT22;18084;53.028;8.834;2022-09-09T19:01:03;14.90;99.90
31455;DHT22;18084;53.028;8.834;2022-09-09T19:03:29;14.80;99.90
31455;DHT22;18084;53.028;8.834;2022-09-09T19:06:03;14.90;99.90
31455;DHT22;18084;53.028;8.834;2022-09-09T19:08:29;14.90;99.90
31455;DHT22;18084;53.028;8.834;2022-09-09T19:10:55;14.90;99.90
31455;DHT22;18084;53.028;8.834;2022-09-09T19:13:20;14.90;99.90
31455;DHT22;18084;53.028;8.834;2022-09-09T19:15:45;14.90;99.90
31455;DHT22;18084;53.028;8.834;2022-09-09T19:18:11;14.90;99.90
31455;DHT22;18084;53.028;8.834;2022-09-09T19:20:37;15.00;99.90
31455;DHT22;18084;53.028;8.834;2022-09-09T19:23:03;15.00;99.90
31455;DHT22;18084;53.028;8.834;2022-09-09T19:25:29;14.90;99.90
31455;DHT22;18084;53.028;8.834;2022-09-09T19:27:56;14.90;99.90
31455;DHT22;18084;53.028;8.834;2022-09-09T19:30:22;14.90;99.90
31455;DHT22;18084;53.028;8.834;2022-09-09T19:32:49;14.90;99.90
31455;DHT22;18084;53.028;8.834;2022-09-09T19:35:16;14.80;99.90
31455;DHT22;18084;53.028;8.834;2022-09-09T19:37:45;14.80;99.90
31455;DHT22;18084;53.028;8.834;2022-09-09T19:40:10;14.70;99.90
31455;DHT22;18084;53.028;8.834;2022-09-09T19:42:36;14.70;99.90
31455;DHT22;18084;53.028;8.834;2022-09-09T19:45:01;14.70;99.90
31455;DHT22;18084;53.028;8.834;2022-09-09T19:47:27;14.70;99.90
31455;DHT22;18084;53.028;8.834;2022-09-09T19:49:52;14.60;99.90
31455;DHT22;18084;53.028;8.834;2022-09-09T19:52:18;14.70;99.90
31455;DHT22;18084;53.028;8.834;2022-09-09T19:54:44;14.60;99.90
31455;DHT22;18084;53.028;8.834;2022-09-09T19:57:09;14.60;99.90
31455;DHT22;18084;53.028;8.834;2022-09-09T19:59:35;14.60;99.90
31455;DHT22;18084;53.028;8.834;2022-09-09T20:02:00;14.50;99.90
31455;DHT22;18084;53.028;8.834;2022-09-09T20:04:26;14.50;99.90
31455;DHT22;18084;53.028;8.834;2022-09-09T20:06:51;14.40;99.90
31455;DHT22;18084;53.028;8.834;2022-09-09T20:16:34;14.50;99.90
31455;DHT22;18084;53.028;8.834;2022-09-09T20:19:34;14.40;99.90
31455;DHT22;18084;53.028;8.834;2022-09-09T20:22:29;14.50;99.90
31455;DHT22;18084;53.028;8.834;2022-09-09T20:52:57;14.30;99.90
31455;DHT22;18084;53.028;8.834;2022-09-09T20:55:23;14.30;99.90
31455;DHT22;18084;53.028;8.834;2022-09-09T20:57:50;14.30;99.90
31455;DHT22;18084;53.028;8.834;2022-09-09T21:00:16;14.30;99.90
31455;DHT22;18084;53.028;8.834;2022-09-09T21:02:42;14.30;99.90
31455;DHT22;18084;53.028;8.834;2022-09-09T21:05:08;14.30;99.90
31455;DHT22;18084;53.028;8.834;2022-09-09T21:07:33;14.30;99.90
31455;DHT22;18084;53.028;8.834;2022-09-09T21:09:59;14.30;99.90
31455;DHT22;18084;53.028;8.834;2022-09-09T21:12:26;14.30;99.90
31455;DHT22;18084;53.028;8.834;2022-09-09T21:14:52;14.40;99.90
31455;DHT22;18084;53.028;8.834;2022-09-09T21:17:17;14.30;99.90
31455;DHT22;18084;53.028;8.834;2022-09-09T21:19:43;14.30;99.90
31455;DHT22;18084;53.028;8.834;2022-09-09T21:22:09;14.30;99.90
31455;DHT22;18084;53.028;8.834;2022-09-09T21:24:35;14.30;99.90
31455;DHT22;18084;53.028;8.834;2022-09-09T21:27:02;14.30;99.90
31455;DHT22;18084;53.028;8.834;2022-09-09T21:29:28;14.40;99.90
31455;DHT22;18084;53.028;8.834;2022-09-09T21:31:53;14.30;99.90
31455;DHT22;18084;53.028;8.834;2022-09-09T21:34:20;14.30;99.90
31455;DHT22;18084;53.028;8.834;2022-09-09T21:36:45;14.30;99.90
31455;DHT22;18084;53.028;8.834;2022-09-09T21:39:11;14.20;99.90
31455;DHT22;18084;53.028;8.834;2022-09-09T21:41:36;14.20;99.90
31455;DHT22;18084;53.028;8.834;2022-09-09T21:44:02;14.20;99.90
31455;DHT22;18084;53.028;8.834;2022-09-09T21:46:28;14.20;99.90
31455;DHT22;18084;53.028;8.834;2022-09-09T21:48:54;14.20;99.90
31455;DHT22;18084;53.028;8.834;2022-09-09T21:51:22;14.20;99.90
31455;DHT22;18084;53.028;8.834;2022-09-09T21:53:48;14.20;99.90
31455;DHT22;18084;53.028;8.834;2022-09-09T21:56:17;14.30;99.90
31455;DHT22;18084;53.028;8.834;2022-09-09T21:58:43;14.20;99.90
31455;DHT22;18084;53.028;8.834;2022-09-09T22:01:15;14.20;99.90
31455;DHT22;18084;53.028;8.834;2022-09-09T22:03:41;14.30;99.90
31455;DHT22;18084;53.028;8.834;2022-09-09T22:06:09;14.30;99.90
31455;DHT22;18084;53.028;8.834;2022-09-09T22:08:35;14.30;99.90
31455;DHT22;18084;53.028;8.834;2022-09-09T22:11:08;14.30;99.90
31455;DHT22;18084;53.028;8.834;2022-09-09T22:13:34;14.30;99.90
31455;DHT22;18084;53.028;8.834;2022-09-09T22:16:03;14.30;99.90
31455;DHT22;18084;53.028;8.834;2022-09-09T22:18:29;14.30;99.90
31455;DHT22;18084;53.028;8.834;2022-09-09T22:20:57;14.30;99.90
31455;DHT22;18084;53.028;8.834;2022-09-09T22:23:23;14.30;99.90
31455;DHT22;18084;53.028;8.834;2022-09-09T22:25:49;14.30;99.90
31455;DHT22;18084;53.028;8.834;2022-09-09T22:28:15;14.30;99.90
31455;DHT22;18084;53.028;8.834;2022-09-09T22:30:41;14.30;99.90
31455;DHT22;18084;53.028;8.834;2022-09-09T22:33:06;14.30;99.90
31455;DHT22;18084;53.028;8.834;2022-09-09T22:35:41;14.30;99.90
31455;DHT22;18084;53.028;8.834;2022-09-09T22:38:09;14.30;99.90
31455;DHT22;18084;53.028;8.834;2022-09-09T22:40:36;14.30;99.90
31455;DHT22;18084;53.028;8.834;2022-09-09T22:43:02;14.40;99.90
31455;DHT22;18084;53.028;8.834;2022-09-09T22:45:28;14.40;99.90
31455;DHT22;18084;53.028;8.834;2022-09-09T22:47:53;14.40;99.90
31455;DHT22;18084;53.028;8.834;2022-09-09T22:50:19;14.40;99.90
31455;DHT22;18084;53.028;8.834;2022-09-09T22:52:44;14.50;99.90
31455;DHT22;18084;53.028;8.834;2022-09-09T22:55:11;14.50;99.90
31455;DHT22;18084;53.028;8.834;2022-09-09T22:57:37;14.50;99.90
31455;DHT22;18084;53.028;8.834;2022-09-09T23:00:04;14.60;99.90
31455;DHT22;18084;53.028;8.834;2022-09-09T23:02:33;14.60;99.90
31455;DHT22;18084;53.028;8.834;2022-09-09T23:04:59;14.60;99.90
31455;DHT22;18084;53.028;8.834;2022-09-09T23:07:26;14.50;99.90
31455;DHT22;18084;53.028;8.834;2022-09-09T23:09:51;14.50;99.90
31455;DHT22;18084;53.028;8.834;2022-09-09T23:12:17;14.50;99.90
31455;DHT22;18084;53.028;8.834;2022-09-09T23:14:44;14.50;99.90
31455;DHT22;18084;53.028;8.834;2022-09-09T23:17:10;14.50;99.90
31455;DHT22;18084;53.028;8.834;2022-09-09T23:19:38;14.50;99.90
31455;DHT22;18084;53.028;8.834;2022-09-09T23:22:04;14.50;99.90
31455;DHT22;18084;53.028;8.834;2022-09-09T23:24:31;14.50;99.90
31455;DHT22;18084;53.028;8.834;2022-09-09T23:26:56;14.50;99.90
31455;DHT22;18084;53.028;8.834;2022-09-09T23:29:22;14.40;99.90
31455;DHT22;18084;53.028;8.834;2022-09-09T23:31:47;14.40;99.90
31455;DHT22;18084;53.028;8.834;2022-09-09T23:34:13;14.40;99.90
31455;DHT22;18084;53.028;8.834;2022-09-09T23:36:39;14.40;99.90
31455;DHT22;18084;53.028;8.834;2022-09-09T23:39:06;14.40;99.90
31455;DHT22;18084;53.028;8.834;2022-09-09T23:41:33;14.40;99.90
31455;DHT22;18084;53.028;8.834;2022-09-09T23:44:00;14.40;99.90
31455;DHT22;18084;53.028;8.834;2022-09-09T23:46:27;14.40;99.90
31455;DHT22;18084;53.028;8.834;2022-09-09T23:48:54;14.40;99.90
31455;DHT22;18084;53.028;8.834;2022-09-09T23:51:23;14.40;99.90